Time;durP1;ratioP1;P1;durP2;ratioP2;P2;SDS_P1;SDS_P2;PMS_P1;PMS_P2;Temp;Humidity;BMP_temperature;BMP_pressure;BME280_temperature;BME280_humidity;BME280_pressure;Samples;Min_cycle;Max_cycle;Signal;HPM_P1;HPM_P2
2023/05/26 00:00:12;;;;;;;29.20;5.82;;;9.60;95.20;;;;;;5074809;28;20488;-70
2023/05/26 00:02:39;;;;;;;24.80;5.90;;;9.50;95.50;;;;;;5075232;28;20044;-71
2023/05/26 00:05:06;;;;;;;26.25;6.15;;;9.50;95.60;;;;;;5074917;28;20054;-71
2023/05/26 00:07:33;;;;;;;24.40;5.15;;;9.40;95.70;;;;;;5074905;28;20043;-71
2023/05/26 00:09:58;;;;;;;25.17;5.50;;;9.40;96.00;;;;;;5074859;28;20040;-71
2023/05/26 00:12:24;;;;;;;25.45;6.38;;;9.40;96.20;;;;;;5074910;28;20161;-71
2023/05/26 00:14:50;;;;;;;22.77;5.43;;;9.30;96.30;;;;;;5074783;28;20040;-71
2023/05/26 00:17:19;;;;;;;23.23;5.15;;;9.30;96.40;;;;;;5074823;28;20071;-71
2023/05/26 00:19:44;;;;;;;27.02;5.32;;;9.30;96.50;;;;;;5074681;28;20053;-70
2023/05/26 00:22:12;;;;;;;26.77;5.70;;;9.30;96.70;;;;;;5058260;28;20043;-70
2023/05/26 00:24:38;;;;;;;24.05;5.15;;;9.30;96.80;;;;;;5075017;28;20067;-70
2023/05/26 00:27:04;;;;;;;23.05;5.03;;;9.20;97.00;;;;;;5074712;28;20485;-71
2023/05/26 00:29:30;;;;;;;24.35;5.35;;;9.20;97.10;;;;;;5074975;28;20055;-71
2023/05/26 00:31:56;;;;;;;24.38;5.25;;;9.10;97.10;;;;;;5074603;28;20492;-70
2023/05/26 00:34:22;;;;;;;24.58;5.53;;;9.10;97.30;;;;;;5074592;28;20039;-70
2023/05/26 00:36:48;;;;;;;20.83;5.25;;;9.10;97.50;;;;;;5074597;28;20043;-70
2023/05/26 00:39:13;;;;;;;24.60;5.30;;;9.10;97.60;;;;;;5074737;28;20121;-70
2023/05/26 00:41:39;;;;;;;34.90;6.13;;;9.10;97.70;;;;;;5074597;28;20036;-70
2023/05/26 00:44:05;;;;;;;22.75;5.13;;;9.00;97.80;;;;;;5074504;28;20036;-71
2023/05/26 00:46:30;;;;;;;30.30;5.72;;;9.00;98.00;;;;;;5074751;28;20036;-71
2023/05/26 00:48:56;;;;;;;21.15;5.13;;;9.00;98.10;;;;;;5075397;28;20499;-71
2023/05/26 00:51:22;;;;;;;22.00;5.32;;;9.00;98.20;;;;;;5061390;28;20040;-70
2023/05/26 00:53:49;;;;;;;25.40;4.95;;;8.90;98.20;;;;;;5078417;28;20109;-70
2023/05/26 00:56:18;;;;;;;28.08;5.95;;;8.90;98.30;;;;;;5078038;28;20062;-71
2023/05/26 00:58:44;;;;;;;26.15;5.50;;;8.90;98.40;;;;;;5077990;28;20040;-71
2023/05/26 01:01:10;;;;;;;23.95;5.47;;;8.90;98.50;;;;;;5077781;28;20036;-70
2023/05/26 01:03:39;;;;;;;25.25;5.00;;;8.90;98.60;;;;;;5077962;28;20047;-70
2023/05/26 01:06:05;;;;;;;24.45;5.50;;;8.90;98.60;;;;;;5078121;28;20127;-70
2023/05/26 01:08:32;;;;;;;17.73;5.25;;;8.90;98.60;;;;;;5078081;28;20040;-71
2023/05/26 01:11:06;;;;;;;20.48;4.50;;;8.90;98.70;;;;;;5078181;28;20127;-70
2023/05/26 01:13:43;;;;;;;22.92;5.00;;;8.90;98.80;;;;;;5061096;28;20094;-70
2023/05/26 01:16:11;;;;;;;25.20;5.68;;;8.80;99.00;;;;;;5061062;28;20130;-70
2023/05/26 01:18:52;;;;;;;30.52;6.00;;;8.80;99.00;;;;;;5077641;28;20046;-71
2023/05/26 01:21:21;;;;;;;24.25;5.25;;;8.80;99.10;;;;;;5077615;28;20047;-70
2023/05/26 01:24:11;;;;;;;22.23;6.30;;;8.70;99.40;;;;;;5077474;28;20123;-70
2023/05/26 01:26:57;;;;;;;22.02;5.57;;;8.70;99.60;;;;;;5077866;28;20052;-70
2023/05/26 01:29:25;;;;;;;25.67;5.13;;;8.70;99.90;;;;;;5077483;28;20044;-70
2023/05/26 01:31:51;;;;;;;24.58;5.57;;;8.70;99.80;;;;;;5077622;28;20046;-70
2023/05/26 01:34:17;;;;;;;28.23;6.03;;;8.70;99.90;;;;;;5060620;28;20442;-70
2023/05/26 01:36:42;;;;;;;24.55;4.70;;;8.70;99.80;;;;;;5077270;28;20036;-70
2023/05/26 01:39:09;;;;;;;29.20;5.97;;;8.70;99.70;;;;;;5060677;28;20040;-70
2023/05/26 01:41:43;;;;;;;25.17;4.70;;;8.70;99.80;;;;;;5077197;28;20028;-70
2023/05/26 01:44:16;;;;;;;25.52;5.80;;;8.70;99.90;;;;;;5077273;28;20081;-70
2023/05/26 01:46:47;;;;;;;23.80;5.35;;;8.60;99.90;;;;;;5077387;28;20492;-70
2023/05/26 01:49:14;;;;;;;29.90;6.18;;;8.60;99.90;;;;;;5077448;28;20094;-70
2023/05/26 01:51:45;;;;;;;25.30;5.43;;;8.50;99.90;;;;;;5060440;28;20036;-70
2023/05/26 01:54:11;;;;;;;19.27;4.50;;;8.50;99.90;;;;;;5077042;28;20050;-70
2023/05/26 01:56:39;;;;;;;26.30;5.75;;;8.50;99.90;;;;;;5060285;28;20388;-70
2023/05/26 01:59:06;;;;;;;27.67;5.90;;;8.50;99.90;;;;;;5077102;28;20105;-70
2023/05/26 02:01:33;;;;;;;23.73;5.18;;;8.50;99.90;;;;;;5093748;28;20074;-70
2023/05/26 02:03:59;;;;;;;26.73;5.32;;;8.40;99.90;;;;;;5076807;28;20047;-70
2023/05/26 02:06:26;;;;;;;25.27;5.97;;;8.40;99.90;;;;;;5076770;28;20043;-70
2023/05/26 02:08:51;;;;;;;26.42;5.40;;;8.40;99.90;;;;;;5076685;28;20044;-70
2023/05/26 02:11:17;;;;;;;25.05;5.60;;;8.30;99.90;;;;;;5076653;28;20039;-70
2023/05/26 02:13:45;;;;;;;25.98;5.70;;;8.30;99.90;;;;;;5076648;28;20055;-70
2023/05/26 02:16:13;;;;;;;26.42;5.45;;;8.30;99.90;;;;;;5076401;28;20531;-70
2023/05/26 02:18:39;;;;;;;22.15;5.05;;;8.30;99.90;;;;;;5076797;28;20378;-70
2023/05/26 02:21:05;;;;;;;28.98;5.88;;;8.20;99.90;;;;;;5059669;28;20515;-70
2023/05/26 02:23:30;;;;;;;24.27;5.60;;;8.20;99.90;;;;;;5076424;28;20036;-70
2023/05/26 02:25:56;;;;;;;24.95;5.63;;;8.20;99.90;;;;;;5060002;28;20044;-70
2023/05/26 02:28:21;;;;;;;26.77;5.40;;;8.20;99.90;;;;;;5076346;28;20044;-70
2023/05/26 02:30:47;;;;;;;17.35;4.47;;;8.10;99.90;;;;;;5076235;28;20044;-70
2023/05/26 02:33:13;;;;;;;17.80;4.53;;;8.10;99.90;;;;;;5076146;28;20079;-70
2023/05/26 02:35:38;;;;;;;20.40;4.75;;;8.10;99.90;;;;;;5076320;28;20040;-70
2023/05/26 02:38:04;;;;;;;18.83;5.03;;;8.00;99.90;;;;;;5059530;28;20036;-71
2023/05/26 02:40:29;;;;;;;21.13;5.35;;;8.00;99.90;;;;;;5076310;28;20036;-70
2023/05/26 02:42:55;;;;;;;22.10;4.85;;;8.00;99.90;;;;;;5094735;28;20485;-70
2023/05/26 02:45:21;;;;;;;21.55;5.07;;;8.00;99.90;;;;;;5076295;28;20047;-70
2023/05/26 02:47:46;;;;;;;21.85;4.95;;;7.90;99.90;;;;;;5075858;28;20089;-70
2023/05/26 02:50:12;;;;;;;20.55;4.85;;;7.90;99.90;;;;;;5059562;28;20065;-70
2023/05/26 02:52:38;;;;;;;21.83;5.55;;;7.90;99.90;;;;;;5075860;28;20051;-70
2023/05/26 02:55:04;;;;;;;19.83;5.13;;;7.80;99.90;;;;;;5075986;28;20094;-70
2023/05/26 02:57:30;;;;;;;20.35;4.55;;;7.70;99.90;;;;;;5075764;28;20048;-70
2023/05/26 02:59:55;;;;;;;23.05;5.07;;;7.80;99.90;;;;;;5075966;28;20074;-70
2023/05/26 03:02:21;;;;;;;24.83;5.90;;;7.70;99.90;;;;;;5059246;28;20500;-70
2023/05/26 03:04:46;;;;;;;21.67;4.80;;;7.70;99.90;;;;;;5075680;28;20492;-70
2023/05/26 03:07:12;;;;;;;20.67;5.20;;;7.60;99.90;;;;;;5075848;28;20126;-70
2023/05/26 03:09:38;;;;;;;20.67;5.68;;;7.70;99.90;;;;;;5075617;28;20043;-70
2023/05/26 03:12:06;;;;;;;23.70;5.63;;;7.70;99.90;;;;;;5075234;28;20075;-70
2023/05/26 03:14:33;;;;;;;21.65;5.00;;;7.70;99.90;;;;;;5075694;28;20106;-71
2023/05/26 03:17:00;;;;;;;25.48;5.88;;;7.60;99.90;;;;;;5075486;28;20042;-70
2023/05/26 03:19:26;;;;;;;22.13;5.15;;;7.60;99.90;;;;;;5075411;28;20075;-70
2023/05/26 03:21:52;;;;;;;18.75;4.57;;;7.60;99.90;;;;;;5075629;28;20076;-70
2023/05/26 03:24:18;;;;;;;24.23;5.15;;;7.70;99.90;;;;;;5075424;28;20408;-70
2023/05/26 03:26:43;;;;;;;17.00;4.22;;;7.70;99.90;;;;;;5075307;28;20040;-70
2023/05/26 03:29:09;;;;;;;20.17;4.93;;;7.70;99.90;;;;;;5075644;28;20048;-70
2023/05/26 03:31:35;;;;;;;22.55;4.95;;;7.70;99.90;;;;;;5075241;28;20512;-70
2023/05/26 03:34:01;;;;;;;21.52;5.63;;;7.60;99.90;;;;;;5075256;28;20071;-70
2023/05/26 03:36:26;;;;;;;23.48;5.82;;;7.60;99.90;;;;;;5058497;28;20044;-70
2023/05/26 03:38:52;;;;;;;17.92;4.47;;;7.60;99.90;;;;;;5058809;28;20066;-70
2023/05/26 03:41:18;;;;;;;19.05;5.00;;;7.60;99.90;;;;;;5075152;28;20449;-70
2023/05/26 03:43:43;;;;;;;21.08;4.57;;;7.60;99.90;;;;;;5075161;28;20123;-70
2023/05/26 03:46:09;;;;;;;20.35;4.50;;;7.60;99.90;;;;;;5093232;28;20068;-70
2023/05/26 03:48:35;;;;;;;19.80;6.20;;;7.60;99.90;;;;;;5075135;28;20101;-70
2023/05/26 03:51:00;;;;;;;22.65;5.00;;;7.60;99.90;;;;;;5075039;28;20040;-70
2023/05/26 03:53:26;;;;;;;23.00;5.13;;;7.60;99.90;;;;;;5075056;28;20036;-70
2023/05/26 03:55:52;;;;;;;18.65;4.78;;;7.60;99.90;;;;;;5074934;28;20036;-70
2023/05/26 03:58:17;;;;;;;23.30;4.93;;;7.60;99.90;;;;;;5075059;28;20048;-70
2023/05/26 04:00:43;;;;;;;20.42;5.32;;;7.60;99.90;;;;;;5074849;28;20040;-70
2023/05/26 04:03:09;;;;;;;18.08;4.28;;;7.60;99.90;;;;;;5076080;28;20036;-70
2023/05/26 04:05:34;;;;;;;19.42;5.07;;;7.60;99.90;;;;;;5074917;28;20409;-70
2023/05/26 04:08:00;;;;;;;19.08;4.95;;;7.60;99.90;;;;;;5074980;28;20048;-70
2023/05/26 04:10:25;;;;;;;17.88;4.65;;;7.60;99.90;;;;;;5058442;28;20071;-70
2023/05/26 04:12:51;;;;;;;22.08;5.68;;;7.60;99.90;;;;;;5075129;28;20047;-70
2023/05/26 04:15:16;;;;;;;20.50;4.15;;;7.60;99.90;;;;;;5074775;28;20498;-70
2023/05/26 04:17:42;;;;;;;22.88;4.78;;;7.60;99.90;;;;;;5058196;28;20032;-70
2023/05/26 04:20:11;;;;;;;21.08;5.03;;;7.60;99.90;;;;;;5074811;28;20039;-70
2023/05/26 04:22:38;;;;;;;19.00;4.15;;;7.70;99.90;;;;;;5058111;28;20046;-71
2023/05/26 04:25:04;;;;;;;15.55;4.40;;;7.70;99.90;;;;;;5077704;28;20105;-71
2023/05/26 04:27:30;;;;;;;23.88;5.80;;;7.80;99.90;;;;;;5078951;28;20123;-71
2023/05/26 04:29:58;;;;;;;25.33;5.15;;;7.80;99.90;;;;;;5078593;28;20040;-70
2023/05/26 04:32:26;;;;;;;25.00;5.60;;;7.80;99.90;;;;;;5061937;28;20040;-71
2023/05/26 04:34:52;;;;;;;21.48;4.70;;;7.90;99.90;;;;;;5061812;28;20090;-71
2023/05/26 04:37:17;;;;;;;22.38;5.53;;;7.90;99.90;;;;;;5078744;28;20099;-71
2023/05/26 04:39:43;;;;;;;24.65;5.65;;;8.00;99.90;;;;;;5078386;28;20389;-70
2023/05/26 04:42:09;;;;;;;31.27;6.05;;;8.00;99.90;;;;;;5078617;28;20040;-70
2023/05/26 04:44:37;;;;;;;25.75;5.70;;;8.10;99.90;;;;;;5079440;28;20098;-70
2023/05/26 04:47:03;;;;;;;23.23;5.40;;;8.20;99.90;;;;;;5078291;28;20408;-70
2023/05/26 04:49:29;;;;;;;25.90;5.90;;;8.30;99.90;;;;;;5078493;28;20385;-70
2023/05/26 04:51:57;;;;;;;26.92;5.38;;;8.30;99.90;;;;;;5078079;28;20649;-70
2023/05/26 04:54:23;;;;;;;21.55;5.45;;;8.40;99.90;;;;;;5078206;28;20040;-70
2023/05/26 04:56:49;;;;;;;28.17;5.55;;;8.50;99.90;;;;;;5096684;28;20101;-70
2023/05/26 04:59:17;;;;;;;31.50;6.05;;;8.50;99.90;;;;;;5078093;28;20537;-70
2023/05/26 05:01:44;;;;;;;27.80;6.32;;;8.60;99.90;;;;;;5096284;28;20404;-70
2023/05/26 05:04:09;;;;;;;30.45;6.18;;;8.60;99.90;;;;;;5078272;28;20043;-70
2023/05/26 05:06:35;;;;;;;26.38;5.78;;;8.70;99.90;;;;;;5077976;28;20040;-71
2023/05/26 05:09:02;;;;;;;26.95;5.95;;;8.70;99.90;;;;;;5077933;28;20129;-70
2023/05/26 05:11:28;;;;;;;22.80;5.18;;;8.80;99.90;;;;;;5077767;28;20496;-70
2023/05/26 05:13:53;;;;;;;27.88;6.18;;;8.90;99.90;;;;;;5078121;28;20131;-70
2023/05/26 05:16:19;;;;;;;26.17;6.43;;;9.00;99.90;;;;;;5077805;28;20489;-70
2023/05/26 05:18:45;;;;;;;29.10;6.38;;;9.00;99.90;;;;;;5077757;28;20539;-70
2023/05/26 05:21:10;;;;;;;27.88;5.55;;;9.10;99.90;;;;;;5077606;28;20115;-70
2023/05/26 05:23:36;;;;;;;27.13;5.70;;;9.20;99.90;;;;;;5077572;28;20069;-70
2023/05/26 05:26:01;;;;;;;27.15;6.25;;;9.30;99.90;;;;;;5077633;28;20051;-70
2023/05/26 05:28:27;;;;;;;25.25;5.00;;;9.40;99.90;;;;;;5077570;28;20036;-70
2023/05/26 05:30:53;;;;;;;25.98;5.28;;;9.40;99.90;;;;;;5060870;28;20044;-71
2023/05/26 05:33:18;;;;;;;24.42;5.00;;;9.50;99.90;;;;;;5077733;28;20048;-71
2023/05/26 05:35:47;;;;;;;28.92;6.00;;;9.60;99.90;;;;;;5077196;28;20528;-71
2023/05/26 05:38:13;;;;;;;26.40;5.32;;;9.70;99.90;;;;;;5077339;28;20404;-71
2023/05/26 05:40:38;;;;;;;34.92;7.47;;;9.80;99.90;;;;;;5060574;28;20043;-71
2023/05/26 05:43:04;;;;;;;25.70;5.50;;;9.90;99.90;;;;;;5077349;28;20036;-72
2023/05/26 05:45:30;;;;;;;32.88;5.38;;;9.90;99.90;;;;;;5077535;28;20040;-73
2023/05/26 05:47:55;;;;;;;36.20;7.05;;;10.00;99.90;;;;;;5077863;28;20044;-71
2023/05/26 05:50:21;;;;;;;29.60;6.13;;;10.10;99.90;;;;;;5077378;28;20456;-73
2023/05/26 05:52:47;;;;;;;25.35;5.00;;;10.10;99.90;;;;;;5077126;28;20036;-72
2023/05/26 05:55:12;;;;;;;26.52;5.63;;;10.20;99.90;;;;;;5076987;28;20093;-72
2023/05/26 05:57:38;;;;;;;27.00;6.03;;;10.30;99.90;;;;;;5060357;28;20090;-72
2023/05/26 06:00:05;;;;;;;30.98;5.53;;;10.40;99.90;;;;;;5077413;28;20063;-71
2023/05/26 06:02:31;;;;;;;26.60;5.97;;;10.40;99.90;;;;;;5077225;28;20036;-72
2023/05/26 06:04:56;;;;;;;30.92;6.13;;;10.50;99.90;;;;;;5076841;28;20047;-72
2023/05/26 06:07:22;;;;;;;26.60;5.05;;;10.60;99.90;;;;;;5076785;28;20050;-72
2023/05/26 06:09:47;;;;;;;33.05;6.90;;;10.70;99.90;;;;;;5076601;28;20051;-72
2023/05/26 06:12:13;;;;;;;32.17;6.30;;;10.80;99.90;;;;;;5076495;28;20078;-72
2023/05/26 06:14:39;;;;;;;28.48;5.60;;;10.90;99.90;;;;;;5059377;28;20077;-72
2023/05/26 06:17:04;;;;;;;25.20;6.32;;;10.90;99.90;;;;;;5076676;28;20043;-73
2023/05/26 06:19:31;;;;;;;23.88;5.28;;;11.00;99.90;;;;;;5076558;28;20070;-73
2023/05/26 06:21:56;;;;;;;34.97;6.45;;;11.00;99.90;;;;;;5059854;28;20032;-73
2023/05/26 06:24:22;;;;;;;33.78;5.70;;;11.00;99.90;;;;;;5076682;28;20040;-73
2023/05/26 06:26:48;;;;;;;30.88;6.60;;;11.10;99.90;;;;;;5076418;28;20040;-72
2023/05/26 06:29:14;;;;;;;31.48;7.15;;;11.20;99.90;;;;;;5076338;28;20036;-72
2023/05/26 06:31:40;;;;;;;29.70;5.80;;;11.20;99.90;;;;;;5076179;28;20036;-72
2023/05/26 06:34:06;;;;;;;29.08;6.38;;;11.30;99.90;;;;;;5059867;28;20161;-73
2023/05/26 06:36:31;;;;;;;27.02;6.28;;;11.30;99.90;;;;;;5076211;28;20408;-73
2023/05/26 06:38:59;;;;;;;26.27;5.63;;;11.40;99.90;;;;;;5076184;28;20036;-73
2023/05/26 06:41:26;;;;;;;32.95;6.50;;;11.50;99.90;;;;;;5075997;28;20036;-73
2023/05/26 06:43:52;;;;;;;33.60;6.38;;;11.60;99.90;;;;;;5076125;28;20089;-72
2023/05/26 06:46:18;;;;;;;28.70;6.32;;;11.70;99.90;;;;;;5076058;28;20039;-73
2023/05/26 06:48:44;;;;;;;28.40;5.60;;;11.80;99.90;;;;;;5059307;28;20481;-71
2023/05/26 06:51:10;;;;;;;32.20;5.88;;;11.80;99.90;;;;;;5076048;28;20038;-70
2023/05/26 06:53:37;;;;;;;25.52;5.68;;;11.90;99.90;;;;;;5076112;28;20389;-70
2023/05/26 06:56:03;;;;;;;26.90;5.97;;;12.00;99.90;;;;;;5075674;28;20523;-70
2023/05/26 06:58:29;;;;;;;27.73;6.85;;;12.10;99.90;;;;;;5075961;28;20101;-70
2023/05/26 07:00:59;;;;;;;25.52;5.60;;;12.20;99.70;;;;;;5075506;28;20488;-70
2023/05/26 07:03:26;;;;;;;26.30;6.28;;;12.20;99.40;;;;;;5075753;28;20047;-71
2023/05/26 07:05:52;;;;;;;35.35;6.80;;;12.30;99.10;;;;;;5075642;28;20040;-71
2023/05/26 07:08:17;;;;;;;24.52;4.93;;;12.40;98.80;;;;;;5075890;28;20039;-71
2023/05/26 07:10:43;;;;;;;31.85;6.53;;;12.60;98.80;;;;;;5058915;28;20488;-71
2023/05/26 07:13:08;;;;;;;27.42;4.88;;;12.70;98.60;;;;;;5075834;28;20040;-71
2023/05/26 07:15:34;;;;;;;27.50;5.40;;;12.80;97.60;;;;;;5075498;28;20505;-71
2023/05/26 07:18:00;;;;;;;31.27;5.68;;;12.90;96.80;;;;;;5075502;28;20036;-71
2023/05/26 07:20:25;;;;;;;24.25;5.05;;;12.90;96.50;;;;;;5075664;28;20036;-71
2023/05/26 07:22:51;;;;;;;19.77;4.63;;;13.00;95.60;;;;;;5075710;28;20040;-70
2023/05/26 07:25:16;;;;;;;25.30;6.28;;;13.00;95.10;;;;;;5075417;28;20415;-70
2023/05/26 07:27:42;;;;;;;24.65;5.03;;;13.20;94.50;;;;;;5075400;28;20047;-70
2023/05/26 07:30:08;;;;;;;23.35;4.43;;;13.20;93.90;;;;;;5075602;28;20078;-70
2023/05/26 07:32:34;;;;;;;25.17;4.55;;;13.30;93.40;;;;;;5075259;28;20489;-70
2023/05/26 07:34:59;;;;;;;16.67;3.80;;;13.30;92.90;;;;;;5075437;28;20047;-70
2023/05/26 07:37:25;;;;;;;24.67;5.18;;;13.50;92.70;;;;;;5058618;28;20462;-70
2023/05/26 07:39:50;;;;;;;23.17;4.75;;;13.60;92.50;;;;;;5075391;28;20039;-70
2023/05/26 07:42:16;;;;;;;27.33;5.47;;;13.80;92.70;;;;;;5075159;28;20618;-70
2023/05/26 07:44:42;;;;;;;23.35;4.63;;;13.90;92.20;;;;;;5058469;28;20036;-70
2023/05/26 07:47:07;;;;;;;25.27;4.90;;;14.10;91.90;;;;;;5075200;28;20067;-71
2023/05/26 07:49:33;;;;;;;28.55;5.55;;;14.20;91.40;;;;;;5058828;28;20051;-71
2023/05/26 07:51:58;;;;;;;24.67;5.13;;;14.30;90.80;;;;;;5075057;28;20420;-70
2023/05/26 07:54:24;;;;;;;21.75;4.57;;;14.40;90.50;;;;;;5075343;28;20085;-70
2023/05/26 07:56:50;;;;;;;20.33;4.75;;;14.40;90.20;;;;;;5074931;28;20518;-70
2023/05/26 07:59:16;;;;;;;22.48;4.38;;;14.40;88.50;;;;;;5059760;28;20101;-71
2023/05/26 08:01:41;;;;;;;17.13;4.63;;;14.40;87.80;;;;;;5079264;28;20089;-70
2023/05/26 08:04:07;;;;;;;17.48;4.22;;;14.50;86.90;;;;;;5079139;28;20044;-71
2023/05/26 08:06:32;;;;;;;19.05;4.45;;;14.50;84.70;;;;;;5079156;28;20115;-71
2023/05/26 08:08:58;;;;;;;19.45;3.88;;;14.60;83.60;;;;;;5079058;28;20044;-71
2023/05/26 08:11:25;;;;;;;20.88;3.83;;;14.80;83.70;;;;;;5062243;28;20036;-71
2023/05/26 08:13:50;;;;;;;17.13;3.67;;;14.90;82.80;;;;;;5078978;28;20040;-71
2023/05/26 08:16:16;;;;;;;19.92;4.75;;;15.10;82.10;;;;;;5097023;28;20129;-71
2023/05/26 08:18:42;;;;;;;17.88;4.28;;;15.20;80.80;;;;;;5078794;28;20032;-71
2023/05/26 08:21:07;;;;;;;20.83;4.68;;;15.30;79.40;;;;;;5078957;28;20093;-71
2023/05/26 08:23:33;;;;;;;17.02;3.92;;;15.30;78.10;;;;;;5078791;28;20036;-71
2023/05/26 08:25:58;;;;;;;17.80;4.00;;;15.30;77.30;;;;;;5078758;28;20044;-71
2023/05/26 08:28:24;;;;;;;17.33;4.45;;;15.40;78.20;;;;;;5078928;28;20047;-71
2023/05/26 08:30:50;;;;;;;21.88;4.40;;;15.50;77.50;;;;;;5078799;28;20035;-71
2023/05/26 08:33:15;;;;;;;22.02;3.85;;;15.60;76.60;;;;;;5078430;28;20450;-71
2023/05/26 08:35:41;;;;;;;16.13;3.90;;;15.70;76.80;;;;;;5078991;28;20036;-71
2023/05/26 08:38:07;;;;;;;18.92;4.43;;;15.80;75.50;;;;;;5078495;28;20040;-70
2023/05/26 08:40:33;;;;;;;19.95;4.15;;;15.90;74.50;;;;;;5078633;28;20123;-70
2023/05/26 08:43:07;;;;;;;11.75;3.70;;;16.00;74.30;;;;;;5078369;28;20411;-71
2023/05/26 08:45:33;;;;;;;16.70;3.83;;;16.10;73.60;;;;;;5078310;28;20051;-71
2023/05/26 08:48:01;;;;;;;20.48;4.10;;;16.10;73.60;;;;;;5078240;28;20044;-71
2023/05/26 08:50:29;;;;;;;16.83;3.40;;;16.30;73.30;;;;;;5078007;28;20558;-70
2023/05/26 08:52:56;;;;;;;16.63;3.70;;;16.40;72.60;;;;;;5078112;28;20550;-70
2023/05/26 08:55:21;;;;;;;19.30;3.75;;;16.50;72.10;;;;;;5077999;28;20035;-70
2023/05/26 08:57:48;;;;;;;15.90;3.53;;;16.70;72.40;;;;;;5061424;28;20065;-70
2023/05/26 09:00:15;;;;;;;21.38;4.20;;;16.80;71.40;;;;;;5077931;28;20043;-71
2023/05/26 09:02:42;;;;;;;16.70;3.92;;;16.90;70.50;;;;;;5078577;28;20086;-70
2023/05/26 09:05:08;;;;;;;15.63;4.20;;;17.00;70.10;;;;;;5078532;28;20067;-70
2023/05/26 09:07:34;;;;;;;17.45;3.97;;;17.10;69.30;;;;;;5077986;28;20094;-70
2023/05/26 09:10:22;;;;;;;19.60;3.85;;;17.10;68.20;;;;;;5077346;28;20040;-69
2023/05/26 09:12:48;;;;;;;18.80;4.18;;;17.20;67.20;;;;;;5077743;28;20122;-70
2023/05/26 09:15:20;;;;;;;18.70;3.33;;;17.20;68.50;;;;;;5061016;28;20128;-70
2023/05/26 09:17:47;;;;;;;18.92;4.00;;;17.30;67.80;;;;;;5077786;28;20032;-70
2023/05/26 09:20:13;;;;;;;16.70;3.22;;;17.50;67.70;;;;;;5077606;28;20115;-70
2023/05/26 09:22:38;;;;;;;18.80;4.40;;;17.60;66.40;;;;;;5077637;28;20071;-70
2023/05/26 09:25:04;;;;;;;13.27;3.35;;;17.70;66.30;;;;;;5077835;28;20079;-70
2023/05/26 09:27:30;;;;;;;14.70;3.38;;;17.90;66.00;;;;;;5077742;28;20047;-71
2023/05/26 09:30:00;;;;;;;18.38;3.90;;;18.00;65.60;;;;;;5077452;28;20443;-71
2023/05/26 09:32:27;;;;;;;16.20;3.50;;;18.10;65.10;;;;;;5077732;28;20043;-70
2023/05/26 09:34:59;;;;;;;14.55;3.63;;;18.10;64.90;;;;;;5077358;28;20089;-71
2023/05/26 09:37:30;;;;;;;18.10;4.13;;;18.20;64.70;;;;;;5061115;28;20055;-71
2023/05/26 09:40:20;;;;;;;15.45;3.58;;;18.20;64.70;;;;;;5077415;28;20071;-71
2023/05/26 09:42:47;;;;;;;14.73;3.95;;;18.30;62.80;;;;;;5077544;28;20043;-71
2023/05/26 09:45:13;;;;;;;17.33;3.42;;;18.30;64.10;;;;;;5060617;28;20036;-71
2023/05/26 09:47:39;;;;;;;12.63;3.00;;;18.40;64.10;;;;;;5077371;28;20083;-70
2023/05/26 09:50:05;;;;;;;16.38;3.95;;;18.50;63.70;;;;;;5076989;28;20058;-70
2023/05/26 09:52:35;;;;;;;12.07;3.10;;;18.50;63.70;;;;;;5077043;28;20051;-71
2023/05/26 09:55:02;;;;;;;15.05;3.25;;;18.50;62.90;;;;;;5076951;28;20044;-71
2023/05/26 09:57:28;;;;;;;14.60;3.75;;;18.70;62.60;;;;;;5077243;28;20055;-71
2023/05/26 09:59:56;;;;;;;13.35;3.25;;;18.80;62.40;;;;;;5076952;28;20440;-71
2023/05/26 10:02:24;;;;;;;13.48;3.63;;;18.80;61.50;;;;;;5076976;28;20488;-71
2023/05/26 10:04:51;;;;;;;18.52;3.40;;;18.90;62.50;;;;;;5076978;28;20032;-71
2023/05/26 10:07:18;;;;;;;17.08;3.65;;;19.10;61.90;;;;;;5094946;28;20048;-70
2023/05/26 10:09:50;;;;;;;17.27;3.75;;;19.00;61.20;;;;;;5076969;28;20040;-70
2023/05/26 10:12:17;;;;;;;14.90;3.60;;;19.10;61.10;;;;;;5076829;28;20500;-70
2023/05/26 10:14:42;;;;;;;16.10;3.78;;;19.20;61.20;;;;;;5094981;28;20046;-70
2023/05/26 10:17:09;;;;;;;14.15;3.30;;;19.40;61.40;;;;;;5076600;28;20040;-71
2023/05/26 10:19:34;;;;;;;15.20;3.75;;;19.60;60.60;;;;;;5076585;28;20150;-70
2023/05/26 10:22:06;;;;;;;20.30;4.45;;;19.70;60.10;;;;;;5075492;28;20119;-70
2023/05/26 10:24:41;;;;;;;14.85;3.45;;;19.70;59.70;;;;;;5094574;28;20396;-70
2023/05/26 10:27:18;;;;;;;14.77;3.38;;;19.70;58.70;;;;;;5077498;28;20047;-70
2023/05/26 10:29:54;;;;;;;15.25;3.92;;;19.70;59.20;;;;;;5076338;28;20127;-70
2023/05/26 10:32:52;;;;;;;13.55;3.28;;;19.70;59.20;;;;;;5076587;28;20079;-70
2023/05/26 10:35:31;;;;;;;16.30;3.58;;;19.70;58.90;;;;;;5076249;28;20051;-69
2023/05/26 10:38:11;;;;;;;18.50;3.53;;;19.60;58.80;;;;;;5076120;28;20123;-70
2023/05/26 10:40:41;;;;;;;22.08;4.45;;;19.70;57.90;;;;;;5076353;28;20093;-70
2023/05/26 10:43:24;;;;;;;16.52;3.63;;;19.80;59.20;;;;;;5076106;28;20051;-71
2023/05/26 10:46:01;;;;;;;16.48;3.83;;;20.00;58.50;;;;;;5059381;28;20047;-71
2023/05/26 10:48:38;;;;;;;16.08;3.88;;;20.00;57.50;;;;;;5076084;28;20058;-71
2023/05/26 10:51:05;;;;;;;15.05;3.63;;;20.10;57.40;;;;;;5075857;28;20382;-71
2023/05/26 10:53:56;;;;;;;17.20;3.90;;;20.10;57.30;;;;;;5075948;28;20040;-71
2023/05/26 10:56:25;;;;;;;14.00;3.60;;;20.30;56.50;;;;;;5075981;28;20040;-70
2023/05/26 10:58:56;;;;;;;16.48;4.43;;;20.40;57.60;;;;;;5075765;28;20040;-70
2023/05/26 11:01:25;;;;;;;13.77;3.40;;;20.40;57.00;;;;;;5075853;28;20496;-70
2023/05/26 11:04:08;;;;;;;16.10;3.47;;;20.50;56.50;;;;;;5075663;28;20043;-70
2023/05/26 11:06:35;;;;;;;;;;;20.70;55.00;;;;;;5076042;28;20504;-70
2023/05/26 11:09:07;;;;;;;11.65;3.58;;;20.80;56.20;;;;;;5075711;28;20304;-70
2023/05/26 11:11:34;;;;;;;16.25;3.53;;;20.90;55.80;;;;;;5075569;28;20132;-72
2023/05/26 11:14:12;;;;;;;15.38;4.35;;;21.00;57.70;;;;;;5058821;28;20500;-70
2023/05/26 11:16:40;;;;;;;14.68;3.50;;;21.10;56.50;;;;;;5075415;28;20047;-70
2023/05/26 11:19:12;;;;;;;13.40;3.58;;;21.10;55.20;;;;;;5075413;28;20036;-70
2023/05/26 11:21:40;;;;;;;15.02;3.30;;;21.20;54.90;;;;;;5075650;28;20105;-70
2023/05/26 11:24:06;;;;;;;11.35;3.58;;;21.20;54.80;;;;;;5075457;28;20039;-70
2023/05/26 11:26:34;;;;;;;14.25;3.30;;;21.40;54.70;;;;;;5075380;28;20047;-70
2023/05/26 11:29:01;;;;;;;14.95;3.22;;;21.50;55.00;;;;;;5075629;28;20402;-70
2023/05/26 11:31:27;;;;;;;11.23;3.28;;;21.50;54.20;;;;;;5075258;28;20047;-70
2023/05/26 11:33:54;;;;;;;11.63;3.40;;;21.50;54.10;;;;;;5074626;28;20135;-70
2023/05/26 11:36:20;;;;;;;17.00;3.08;;;21.50;53.30;;;;;;5074565;28;20066;-70
2023/05/26 11:38:50;;;;;;;12.45;3.42;;;21.40;53.60;;;;;;5074893;28;20036;-70
2023/05/26 11:41:16;;;;;;;16.13;3.58;;;21.50;53.90;;;;;;5074644;28;20096;-70
2023/05/26 11:43:45;;;;;;;13.90;3.58;;;21.60;53.80;;;;;;5057967;28;20072;-70
2023/05/26 11:46:15;;;;;;;12.40;3.47;;;21.70;53.70;;;;;;5074964;28;20035;-70
2023/05/26 11:48:42;;;;;;;13.13;3.67;;;21.90;53.80;;;;;;5075161;28;20032;-70
2023/05/26 11:51:15;;;;;;;15.55;4.38;;;21.90;52.60;;;;;;5075271;28;20093;-70
2023/05/26 11:53:42;;;;;;;13.95;3.42;;;22.00;52.80;;;;;;5058634;28;20097;-70
2023/05/26 11:56:10;;;;;;;12.68;3.75;;;22.10;52.60;;;;;;5075009;28;20044;-71
2023/05/26 11:58:41;;;;;;;14.85;3.35;;;22.10;51.90;;;;;;5075031;28;20055;-70
2023/05/26 12:01:07;;;;;;;22.25;4.60;;;22.20;51.60;;;;;;5074832;28;20040;-70
2023/05/26 12:03:37;;;;;;;11.75;3.40;;;22.10;52.20;;;;;;5058629;28;20031;-70
2023/05/26 12:06:17;;;;;;;13.00;4.05;;;22.00;52.50;;;;;;5075283;28;20048;-71
2023/05/26 12:08:50;;;;;;;14.23;3.58;;;22.10;51.70;;;;;;5074987;28;20143;-71
2023/05/26 12:11:20;;;;;;;13.90;3.78;;;22.10;51.80;;;;;;5074924;28;20036;-70
2023/05/26 12:13:47;;;;;;;15.43;4.30;;;22.10;52.40;;;;;;5058124;28;20039;-70
2023/05/26 12:16:31;;;;;;;16.23;4.00;;;22.20;52.60;;;;;;5074777;28;20408;-70
2023/05/26 12:18:59;;;;;;;12.45;3.90;;;22.40;52.40;;;;;;5074881;28;20127;-70
2023/05/26 12:21:26;;;;;;;19.30;4.95;;;22.40;52.60;;;;;;5074658;28;20032;-70
2023/05/26 12:23:54;;;;;;;19.33;4.75;;;22.50;52.10;;;;;;5074798;28;20595;-70
2023/05/26 12:26:22;;;;;;;15.77;3.90;;;22.60;53.20;;;;;;5074954;28;20497;-70
2023/05/26 12:29:08;;;;;;;22.35;4.35;;;22.60;52.20;;;;;;5074762;28;20082;-70
2023/05/26 12:31:38;;;;;;;19.63;4.60;;;22.40;50.90;;;;;;5074703;28;20489;-70
2023/05/26 12:34:04;;;;;;;14.13;3.85;;;22.40;52.10;;;;;;5074922;28;20500;-70
2023/05/26 12:36:29;;;;;;;15.32;4.55;;;22.60;52.50;;;;;;5074654;28;20039;-70
2023/05/26 12:38:56;;;;;;;19.98;4.20;;;22.60;52.40;;;;;;5074624;28;20086;-70
2023/05/26 12:41:21;;;;;;;13.50;4.68;;;22.60;52.70;;;;;;5074540;28;20032;-70